Time;durP1;ratioP1;P1;durP2;ratioP2;P2;SDS_P1;SDS_P2;PMS_P1;PMS_P2;Temp;Humidity;BMP_temperature;BMP_pressure;BME280_temperature;BME280_humidity;BME280_pressure;Samples;Min_cycle;Max_cycle;Signal;HPM_P1;HPM_P2
2022/02/08 00:00:20;;;;;;;10.70;3.25;;;15.50;65.60;;;;;;4175640;28;20049;-58
2022/02/08 00:02:47;;;;;;;13.48;3.65;;;15.60;65.40;;;;;;4176417;28;20493;-58
2022/02/08 00:05:12;;;;;;;10.35;3.03;;;15.60;65.20;;;;;;4176709;28;20451;-59
2022/02/08 00:07:35;;;;;;;14.52;3.75;;;15.70;65.20;;;;;;4177013;28;20443;-58
2022/02/08 00:09:57;;;;;;;15.38;2.92;;;15.60;65.10;;;;;;4175174;28;20044;-58
2022/02/08 00:12:21;;;;;;;16.90;3.63;;;15.60;65.10;;;;;;4176331;28;20459;-58
2022/02/08 00:14:43;;;;;;;17.63;3.30;;;15.60;65.10;;;;;;4176327;28;20110;-58
2022/02/08 00:17:05;;;;;;;10.57;3.53;;;15.60;65.20;;;;;;4177134;28;20408;-58
2022/02/08 00:19:28;;;;;;;15.65;4.22;;;15.60;65.40;;;;;;4203075;28;20522;-58
2022/02/08 00:21:51;;;;;;;12.40;4.03;;;15.60;65.60;;;;;;4174432;28;20055;-59
2022/02/08 00:24:13;;;;;;;10.77;3.00;;;15.50;65.60;;;;;;4176033;28;20041;-59
2022/02/08 00:26:35;;;;;;;12.55;3.25;;;15.50;65.80;;;;;;4186661;28;20125;-59
2022/02/08 00:28:59;;;;;;;14.27;3.72;;;15.50;66.10;;;;;;4191811;28;20048;-58
2022/02/08 00:31:23;;;;;;;16.17;3.60;;;15.60;65.90;;;;;;4190818;28;20472;-58
2022/02/08 00:33:44;;;;;;;16.77;4.22;;;15.60;65.60;;;;;;4177589;28;20060;-58
2022/02/08 00:36:07;;;;;;;11.50;3.72;;;15.70;65.40;;;;;;4181529;28;20115;-58
2022/02/08 00:38:31;;;;;;;13.63;3.75;;;15.70;65.30;;;;;;4183377;28;20053;-58
2022/02/08 00:40:58;;;;;;;12.18;3.63;;;15.70;65.20;;;;;;4175787;28;20408;-59
2022/02/08 00:43:25;;;;;;;10.88;3.50;;;15.70;65.20;;;;;;4174827;28;20045;-58
2022/02/08 00:45:54;;;;;;;9.07;3.20;;;15.70;65.20;;;;;;4182586;28;20217;-59
2022/02/08 00:48:25;;;;;;;12.25;3.35;;;15.70;65.40;;;;;;4192106;28;20149;-59
2022/02/08 00:50:50;;;;;;;10.60;3.25;;;15.60;65.50;;;;;;4179471;28;20480;-58
2022/02/08 00:53:15;;;;;;;15.43;3.55;;;15.60;65.60;;;;;;4162327;28;20124;-58
2022/02/08 00:55:37;;;;;;;15.95;3.58;;;15.60;65.70;;;;;;4174483;28;20138;-58
2022/02/08 00:57:59;;;;;;;8.10;3.15;;;15.60;65.70;;;;;;4174331;28;20428;-58
2022/02/08 01:00:24;;;;;;;12.57;3.65;;;15.50;65.90;;;;;;4174531;28;20052;-59
2022/02/08 01:02:48;;;;;;;7.93;3.28;;;15.50;65.90;;;;;;4175754;28;20689;-59
2022/02/08 01:05:13;;;;;;;8.48;3.83;;;15.50;66.10;;;;;;4175787;28;20072;-58
2022/02/08 01:07:35;;;;;;;13.15;4.57;;;15.50;66.30;;;;;;4175835;28;20811;-61
2022/02/08 01:10:01;;;;;;;9.65;3.78;;;15.50;66.30;;;;;;4174601;28;20477;-59
2022/02/08 01:12:24;;;;;;;13.63;3.80;;;15.50;66.30;;;;;;4175667;28;20044;-59
2022/02/08 01:14:49;;;;;;;11.27;3.60;;;15.50;66.20;;;;;;4175897;28;20045;-59
2022/02/08 01:17:13;;;;;;;13.13;3.63;;;15.60;66.20;;;;;;4175940;28;20052;-58
2022/02/08 01:19:41;;;;;;;11.00;3.67;;;15.60;66.10;;;;;;4175615;28;20385;-59
2022/02/08 01:22:04;;;;;;;9.50;3.30;;;15.60;66.10;;;;;;4175235;28;20052;-59
2022/02/08 01:24:26;;;;;;;11.43;4.35;;;15.70;66.00;;;;;;4175650;28;20043;-57
2022/02/08 01:26:50;;;;;;;11.43;3.50;;;15.80;65.70;;;;;;4175505;28;20056;-58
2022/02/08 01:29:21;;;;;;;8.90;3.58;;;15.90;65.40;;;;;;4175308;28;20055;-59
2022/02/08 01:31:46;;;;;;;12.05;3.60;;;15.90;65.00;;;;;;4173462;28;20417;-58
2022/02/08 01:34:25;;;;;;;15.48;4.25;;;15.90;64.90;;;;;;4173659;28;20520;-58
2022/02/08 01:37:03;;;;;;;9.60;3.35;;;15.90;64.90;;;;;;4187480;28;20068;-59
2022/02/08 01:39:31;;;;;;;10.10;3.10;;;15.90;65.00;;;;;;4160740;28;20041;-58
2022/02/08 01:44:37;;;;;;;6.93;3.28;;;15.90;65.00;;;;;;4175232;28;20076;-59
2022/02/08 01:47:08;;;;;;;9.98;3.20;;;16.00;65.10;;;;;;4173782;28;20041;-58
2022/02/08 01:49:37;;;;;;;10.32;3.30;;;16.00;65.00;;;;;;4159196;28;20057;-58
2022/02/08 01:52:03;;;;;;;8.43;3.08;;;15.90;65.00;;;;;;4173642;28;20072;-58
2022/02/08 01:54:26;;;;;;;6.93;2.83;;;15.90;65.10;;;;;;4173377;28;20085;-58
2022/02/08 01:56:51;;;;;;;8.60;3.70;;;15.90;65.30;;;;;;4172916;28;20469;-59
2022/02/08 01:59:14;;;;;;;11.15;3.70;;;15.90;65.50;;;;;;4173491;28;20051;-59
2022/02/08 02:01:38;;;;;;;7.53;3.53;;;15.90;65.60;;;;;;4173841;28;20570;-59
2022/02/08 02:03:59;;;;;;;11.43;4.47;;;15.90;65.60;;;;;;4175017;28;20045;-59
2022/02/08 02:06:35;;;;;;;7.15;3.00;;;15.90;66.50;;;;;;4190734;28;20059;-58
2022/02/08 02:09:00;;;;;;;8.23;3.05;;;16.00;65.50;;;;;;4193289;28;20068;-59
2022/02/08 02:11:26;;;;;;;6.22;2.70;;;16.00;65.20;;;;;;4192062;28;20098;-59
2022/02/08 02:13:50;;;;;;;9.93;2.78;;;16.10;65.00;;;;;;4181315;28;20411;-58
2022/02/08 02:16:18;;;;;;;8.48;3.13;;;16.10;64.90;;;;;;4183751;28;20052;-58
2022/02/08 02:18:41;;;;;;;5.78;2.72;;;16.10;64.90;;;;;;4176235;28;20040;-59
2022/02/08 02:21:04;;;;;;;4.22;2.42;;;16.10;64.90;;;;;;4176841;28;20674;-58
2022/02/08 02:23:31;;;;;;;6.97;2.80;;;16.10;65.00;;;;;;4176152;28;20063;-58
2022/02/08 02:25:55;;;;;;;6.65;2.83;;;16.00;65.20;;;;;;4179209;28;20053;-58
2022/02/08 02:28:18;;;;;;;7.05;3.00;;;16.00;65.30;;;;;;4177793;28;20045;-58
2022/02/08 02:30:40;;;;;;;13.30;3.45;;;15.90;65.50;;;;;;4176670;28;20588;-58
2022/02/08 02:33:03;;;;;;;7.97;2.50;;;15.80;65.70;;;;;;4180402;28;20074;-58
2022/02/08 02:35:27;;;;;;;7.00;2.72;;;15.80;66.00;;;;;;4193337;28;20048;-58
2022/02/08 02:37:57;;;;;;;6.90;2.58;;;15.80;66.30;;;;;;4194397;28;20468;-58
2022/02/08 02:40:23;;;;;;;7.53;2.95;;;15.70;66.50;;;;;;4191453;28;20090;-58
2022/02/08 02:42:47;;;;;;;12.50;3.58;;;15.70;66.90;;;;;;4193499;28;20064;-59
2022/02/08 02:45:10;;;;;;;8.30;3.70;;;15.70;66.60;;;;;;4182283;28;20040;-58
2022/02/08 02:47:33;;;;;;;13.25;3.33;;;15.80;66.50;;;;;;4192708;28;20123;-58
2022/02/08 02:49:55;;;;;;;9.20;3.72;;;15.80;66.30;;;;;;4192608;28;20225;-59
2022/02/08 02:52:18;;;;;;;13.38;3.88;;;15.90;66.30;;;;;;4193048;28;20040;-58
2022/02/08 02:54:48;;;;;;;18.88;4.57;;;15.90;66.30;;;;;;4176397;28;20049;-58
2022/02/08 02:57:12;;;;;;;20.70;4.93;;;16.00;65.90;;;;;;4176058;28;20057;-59
2022/02/08 02:59:37;;;;;;;16.02;4.55;;;16.10;65.60;;;;;;4177534;28;20122;-59
2022/02/08 03:02:28;;;;;;;13.52;4.95;;;16.20;65.20;;;;;;4177762;28;20057;-59
2022/02/08 03:04:58;;;;;;;17.58;4.93;;;16.30;65.10;;;;;;4190215;28;20090;-58
2022/02/08 03:18:30;;;;;;;13.80;4.25;;;16.10;66.40;;;;;;4176649;28;20500;-58
2022/02/08 03:20:52;;;;;;;12.07;4.47;;;16.00;65.80;;;;;;4176727;28;20481;-58
2022/02/08 03:23:16;;;;;;;18.30;4.97;;;16.00;66.10;;;;;;4185650;28;20500;-59
2022/02/08 03:25:43;;;;;;;18.83;4.80;;;16.00;66.30;;;;;;4190060;28;20076;-57
2022/02/08 03:28:16;;;;;;;18.30;5.43;;;16.00;66.30;;;;;;4175902;28;20408;-59
2022/02/08 03:30:40;;;;;;;15.52;4.57;;;16.00;66.20;;;;;;4177636;28;20057;-59
2022/02/08 03:33:03;;;;;;;17.83;4.80;;;16.10;66.20;;;;;;4161490;28;20037;-58
2022/02/08 03:35:31;;;;;;;16.10;5.20;;;16.10;66.20;;;;;;4174127;28;20092;-59
2022/02/08 03:37:58;;;;;;;19.08;4.53;;;16.10;66.20;;;;;;4175520;28;20041;-59
2022/02/08 03:40:37;;;;;;;13.32;4.13;;;16.10;66.00;;;;;;4175595;28;20069;-59
2022/02/08 03:43:14;;;;;;;14.88;5.03;;;16.10;66.00;;;;;;4181893;28;20044;-58
2022/02/08 03:45:38;;;;;;;17.10;4.47;;;16.10;66.00;;;;;;4175304;28;20065;-58
2022/02/08 03:48:01;;;;;;;17.90;4.72;;;16.10;66.00;;;;;;4167849;28;20493;-59
2022/02/08 03:50:24;;;;;;;18.20;4.93;;;16.10;66.20;;;;;;4175052;28;20076;-59
2022/02/08 03:52:46;;;;;;;14.85;4.80;;;16.10;66.40;;;;;;4179138;28;20153;-58
2022/02/08 03:55:10;;;;;;;14.55;4.75;;;16.10;66.50;;;;;;4191494;28;20060;-58
2022/02/08 03:57:33;;;;;;;14.40;4.32;;;16.20;66.20;;;;;;4192219;28;20416;-59
2022/02/08 04:00:00;;;;;;;14.00;4.18;;;16.30;66.00;;;;;;4189343;28;20055;-58
2022/02/08 04:02:37;;;;;;;16.38;4.50;;;16.30;65.70;;;;;;4175209;28;20045;-57
2022/02/08 04:05:07;;;;;;;15.38;3.97;;;16.40;65.60;;;;;;4176411;28;20056;-58
2022/02/08 04:07:35;;;;;;;12.57;4.25;;;16.40;65.40;;;;;;4176594;28;20051;-58
2022/02/08 04:10:02;;;;;;;17.15;4.13;;;16.30;65.50;;;;;;4176195;28;20110;-58
2022/02/08 04:12:30;;;;;;;10.43;3.50;;;16.30;65.60;;;;;;4174931;28;20048;-58
2022/02/08 04:14:59;;;;;;;13.95;3.85;;;16.30;65.80;;;;;;4177224;28;20061;-58
2022/02/08 04:17:33;;;;;;;13.25;3.53;;;16.20;66.00;;;;;;4191975;28;20044;-58
2022/02/08 04:33:16;;;;;;;12.60;4.05;;;16.00;67.30;;;;;;4174613;28;20052;-59
2022/02/08 04:36:05;;;;;;;12.68;5.00;;;16.10;67.20;;;;;;4175964;28;20103;-58
2022/02/08 04:38:40;;;;;;;15.48;4.25;;;16.10;67.20;;;;;;4176143;28;20409;-59
2022/02/08 04:41:06;;;;;;;17.55;4.28;;;16.20;67.00;;;;;;4190204;28;20074;-59
2022/02/08 04:43:36;;;;;;;17.45;4.53;;;16.30;66.70;;;;;;4176752;28;20059;-58
2022/02/08 04:46:04;;;;;;;13.43;3.95;;;16.30;67.30;;;;;;4176171;28;20057;-59
2022/02/08 04:48:38;;;;;;;11.60;3.97;;;16.40;66.20;;;;;;4174195;28;20139;-58
2022/02/08 04:51:12;;;;;;;15.27;4.50;;;16.40;66.00;;;;;;4162813;28;20050;-58
2022/02/08 04:53:40;;;;;;;18.65;4.22;;;16.40;66.00;;;;;;4175644;28;20139;-58
2022/02/08 04:56:11;;;;;;;14.98;4.15;;;16.40;66.10;;;;;;4175985;28;20052;-59
2022/02/08 04:58:40;;;;;;;13.48;3.40;;;16.30;66.20;;;;;;4192179;28;20135;-59
2022/02/08 05:01:09;;;;;;;16.45;3.28;;;16.20;66.40;;;;;;4176133;28;20373;-59
2022/02/08 05:35:38;;;;;;;11.35;3.17;;;16.30;66.80;;;;;;4191196;28;20052;-58
2022/02/08 05:43:50;;;;;;;10.60;2.47;;;16.40;66.90;;;;;;4178658;28;20069;-59
2022/02/08 05:49:03;;;;;;;6.50;2.33;;;16.40;66.60;;;;;;4180086;28;20080;-59
2022/02/08 05:51:33;;;;;;;7.82;2.70;;;16.40;67.50;;;;;;4194786;28;20545;-59
2022/02/08 05:53:55;;;;;;;6.38;2.33;;;16.30;66.60;;;;;;4193563;28;20055;-58
2022/02/08 05:56:19;;;;;;;9.82;2.55;;;16.30;66.70;;;;;;4194935;28;20044;-59
2022/02/08 05:58:42;;;;;;;6.53;2.85;;;16.30;66.80;;;;;;4179657;28;20444;-59
2022/02/08 06:01:04;;;;;;;8.48;2.10;;;16.30;67.00;;;;;;4177059;28;20044;-58
2022/02/08 06:03:45;;;;;;;9.13;2.03;;;16.20;67.20;;;;;;4194984;28;20048;-58
2022/02/08 06:06:08;;;;;;;6.68;2.58;;;16.20;67.50;;;;;;4195013;28;20471;-59
2022/02/08 06:08:30;;;;;;;10.20;3.17;;;16.20;67.60;;;;;;4194882;28;20069;-59
2022/02/08 06:10:56;;;;;;;8.10;2.50;;;16.20;67.50;;;;;;4179316;28;20118;-58
2022/02/08 06:13:21;;;;;;;7.40;2.13;;;16.20;67.40;;;;;;4178702;28;20132;-59
2022/02/08 06:15:46;;;;;;;4.38;1.55;;;16.20;67.40;;;;;;4176705;28;20064;-59
2022/02/08 06:18:08;;;;;;;8.80;2.65;;;16.20;67.50;;;;;;4205748;28;20135;-58
2022/02/08 06:20:31;;;;;;;7.63;1.95;;;16.30;67.50;;;;;;4189589;28;20507;-58
2022/02/08 06:22:53;;;;;;;9.55;2.47;;;16.30;67.40;;;;;;4178436;28;20106;-58
2022/02/08 06:25:17;;;;;;;10.20;2.00;;;16.30;67.30;;;;;;4176882;28;20036;-58
2022/02/08 06:27:40;;;;;;;5.68;1.48;;;16.30;67.30;;;;;;4178991;28;20056;-57
2022/02/08 06:30:05;;;;;;;8.30;2.13;;;16.30;67.30;;;;;;4186710;28;20053;-58
2022/02/08 06:32:28;;;;;;;13.73;2.25;;;16.30;67.30;;;;;;4194735;28;20098;-57
2022/02/08 06:34:51;;;;;;;8.93;2.22;;;16.30;67.30;;;;;;4194768;28;20064;-58
2022/02/08 06:37:16;;;;;;;9.57;2.15;;;16.30;67.50;;;;;;4194694;28;20071;-58
2022/02/08 06:39:38;;;;;;;8.82;2.20;;;16.30;67.70;;;;;;4186008;28;20048;-59
2022/02/08 06:42:00;;;;;;;10.52;2.45;;;16.20;67.60;;;;;;4177677;28;20041;-57
2022/02/08 06:44:22;;;;;;;9.65;2.22;;;16.30;67.60;;;;;;4187663;28;20406;-58
2022/02/08 06:46:46;;;;;;;8.00;2.00;;;16.30;67.50;;;;;;4192898;28;20128;-58
2022/02/08 06:49:07;;;;;;;9.68;2.00;;;16.30;67.60;;;;;;4189411;28;20049;-58
2022/02/08 06:51:30;;;;;;;10.20;2.38;;;16.30;67.60;;;;;;4176298;28;20041;-58
2022/02/08 06:53:54;;;;;;;6.97;1.67;;;16.30;67.50;;;;;;4177587;28;20045;-58
2022/02/08 06:56:16;;;;;;;8.55;1.95;;;16.30;67.40;;;;;;4177300;28;20044;-59
2022/02/08 06:58:48;;;;;;;4.07;1.65;;;16.30;67.50;;;;;;4177708;28;20136;-58
2022/02/08 07:01:11;;;;;;;8.60;2.50;;;16.30;67.90;;;;;;4175097;28;20063;-58
2022/02/08 07:03:34;;;;;;;8.20;2.17;;;16.30;68.20;;;;;;4177235;28;20106;-58
2022/02/08 07:05:57;;;;;;;9.43;2.42;;;16.30;68.10;;;;;;4169703;28;20045;-58
2022/02/08 07:08:19;;;;;;;7.40;2.08;;;16.40;67.80;;;;;;4161079;28;20128;-58
2022/02/08 07:10:43;;;;;;;7.55;1.95;;;16.50;67.30;;;;;;4176058;28;20057;-58
2022/02/08 07:13:06;;;;;;;8.38;1.77;;;16.60;67.40;;;;;;4175854;28;20504;-58
2022/02/08 07:15:29;;;;;;;7.57;2.35;;;16.60;67.10;;;;;;4178591;28;20052;-58
2022/02/08 07:17:51;;;;;;;11.32;2.10;;;16.70;66.90;;;;;;4178194;28;20075;-59
2022/02/08 07:20:16;;;;;;;9.35;2.15;;;16.60;66.80;;;;;;4188106;28;20052;-58
2022/02/08 07:22:38;;;;;;;5.68;2.05;;;16.60;66.90;;;;;;4193329;28;20059;-58
2022/02/08 07:25:02;;;;;;;12.95;2.50;;;16.50;67.00;;;;;;4192851;28;20563;-58
2022/02/08 07:27:24;;;;;;;13.65;2.78;;;16.50;67.30;;;;;;4179453;28;20053;-59
2022/02/08 07:29:51;;;;;;;9.20;2.28;;;16.40;67.50;;;;;;4193423;28;20048;-58
2022/02/08 07:32:35;;;;;;;11.75;2.40;;;16.40;67.70;;;;;;4188108;28;20441;-58
2022/02/08 07:35:10;;;;;;;8.55;2.38;;;16.40;67.60;;;;;;4175813;28;20076;-58
2022/02/08 07:37:46;;;;;;;8.45;2.13;;;16.40;67.50;;;;;;4176740;28;20053;-58
2022/02/08 07:40:15;;;;;;;4.60;1.73;;;16.40;67.50;;;;;;4176891;28;20114;-58
2022/02/08 07:42:38;;;;;;;6.30;1.77;;;16.40;67.50;;;;;;4177016;28;20068;-60
2022/02/08 07:45:02;;;;;;;7.88;1.88;;;16.40;67.60;;;;;;4175421;28;20048;-59
2022/02/08 07:47:24;;;;;;;7.43;2.03;;;16.30;67.70;;;;;;4176838;28;20120;-58
2022/02/08 07:49:47;;;;;;;7.10;2.20;;;16.30;67.90;;;;;;4176740;28;20392;-58
2022/02/08 07:52:10;;;;;;;5.40;1.80;;;16.20;68.00;;;;;;4176740;28;20048;-58
2022/02/08 07:54:33;;;;;;;6.85;2.05;;;16.20;68.20;;;;;;4187676;28;20044;-58
2022/02/08 07:56:56;;;;;;;9.25;1.65;;;16.10;68.40;;;;;;4193295;28;20052;-58
2022/02/08 07:59:18;;;;;;;7.70;2.10;;;16.10;68.60;;;;;;4193109;28;20409;-58
2022/02/08 08:01:40;;;;;;;5.78;2.08;;;16.00;68.70;;;;;;4191458;28;20502;-57
2022/02/08 08:04:02;;;;;;;6.97;2.08;;;16.00;69.40;;;;;;4185203;28;20182;-58
2022/02/08 08:06:26;;;;;;;7.45;1.95;;;16.00;69.90;;;;;;4186938;28;20048;-58
2022/02/08 08:08:48;;;;;;;8.68;2.08;;;16.10;70.00;;;;;;4190897;28;20063;-59
2022/02/08 08:11:16;;;;;;;6.10;2.15;;;16.10;69.70;;;;;;4177428;28;20056;-58
2022/02/08 08:13:42;;;;;;;7.28;2.10;;;16.20;70.30;;;;;;4172701;28;20427;-58
2022/02/08 08:16:15;;;;;;;9.77;1.52;;;16.20;69.10;;;;;;4158578;28;20077;-58
2022/02/08 08:18:55;;;;;;;7.53;2.40;;;16.20;69.00;;;;;;4184302;28;20056;-58
2022/02/08 08:21:17;;;;;;;7.60;1.83;;;16.20;68.80;;;;;;4174486;28;20396;-61
2022/02/08 08:23:40;;;;;;;10.32;1.70;;;16.30;68.80;;;;;;4174882;28;20056;-58
2022/02/08 08:26:02;;;;;;;8.18;2.40;;;16.30;68.70;;;;;;4177449;28;20044;-59
2022/02/08 08:28:26;;;;;;;10.32;1.67;;;16.30;68.60;;;;;;4188246;28;20052;-58
2022/02/08 08:30:48;;;;;;;6.32;1.55;;;16.30;68.70;;;;;;4180948;28;20491;-58
2022/02/08 08:33:10;;;;;;;7.35;1.50;;;16.30;68.80;;;;;;4180609;28;20052;-58
2022/02/08 08:35:53;;;;;;;7.72;1.70;;;16.30;68.50;;;;;;4169624;28;20041;-58
2022/02/08 08:38:18;;;;;;;9.93;1.60;;;16.30;68.90;;;;;;4169115;28;20048;-58
2022/02/08 08:40:48;;;;;;;8.93;1.45;;;16.20;68.80;;;;;;4166829;28;20057;-58
2022/02/08 08:43:34;;;;;;;6.93;1.50;;;16.20;68.80;;;;;;4159195;28;20045;-58
2022/02/08 08:48:50;;;;;;;9.33;2.00;;;16.20;68.90;;;;;;4157166;28;20053;-59
2022/02/08 08:51:31;;;;;;;7.22;1.77;;;16.30;69.80;;;;;;4174307;28;20057;-58
2022/02/08 08:53:55;;;;;;;11.55;2.10;;;16.30;68.70;;;;;;4173547;28;20531;-58
2022/02/08 08:56:18;;;;;;;10.93;2.05;;;16.30;68.80;;;;;;4174861;28;20049;-59
2022/02/08 08:58:44;;;;;;;8.40;1.55;;;16.30;69.00;;;;;;4188215;28;20131;-59
2022/02/08 09:01:07;;;;;;;7.97;2.05;;;16.30;69.00;;;;;;4174354;28;20166;-59
2022/02/08 09:03:30;;;;;;;9.85;2.53;;;16.30;68.90;;;;;;4179548;28;20958;-59
2022/02/08 09:05:54;;;;;;;8.00;1.83;;;16.20;69.10;;;;;;4173881;28;20049;-59
2022/02/08 09:08:16;;;;;;;6.25;1.80;;;16.20;69.40;;;;;;4177145;28;20056;-59
2022/02/08 09:10:47;;;;;;;8.38;1.50;;;16.10;69.50;;;;;;4181773;28;20487;-59
2022/02/08 09:13:20;;;;;;;9.57;1.98;;;16.10;69.70;;;;;;4187870;28;20044;-59
2022/02/08 09:15:56;;;;;;;8.27;2.05;;;16.00;70.00;;;;;;4183721;28;20057;-59
2022/02/08 09:18:46;;;;;;;13.15;1.92;;;16.00;70.30;;;;;;4181825;28;20056;-59
2022/02/08 09:21:28;;;;;;;7.57;1.52;;;15.90;70.70;;;;;;4181730;28;20076;-59
2022/02/08 09:24:15;;;;;;;10.95;2.25;;;15.90;70.90;;;;;;4169138;28;20384;-59
2022/02/08 09:27:03;;;;;;;11.27;2.97;;;15.80;71.00;;;;;;4176994;28;20107;-59
2022/02/08 09:29:39;;;;;;;7.80;2.00;;;15.70;71.30;;;;;;4180138;28;20048;-60
2022/02/08 09:32:12;;;;;;;13.18;2.53;;;15.70;71.90;;;;;;4177151;28;20053;-59
2022/02/08 09:34:36;;;;;;;8.73;2.28;;;15.70;72.20;;;;;;4182561;28;20488;-60
2022/02/08 09:36:59;;;;;;;9.10;1.65;;;15.70;72.30;;;;;;4173443;28;20045;-59
2022/02/08 09:39:21;;;;;;;7.07;1.75;;;15.70;72.60;;;;;;4173678;28;20111;-59
2022/02/08 09:41:47;;;;;;;7.35;1.83;;;15.60;72.80;;;;;;4173692;28;20075;-59
2022/02/08 09:44:11;;;;;;;7.20;1.63;;;15.60;72.90;;;;;;4182307;28;20146;-60
2022/02/08 09:46:37;;;;;;;7.30;2.00;;;15.60;73.10;;;;;;4176778;28;20052;-58
2022/02/08 09:48:59;;;;;;;9.85;1.92;;;15.60;73.30;;;;;;4185420;28;20977;-60
2022/02/08 09:51:24;;;;;;;6.13;1.63;;;15.60;73.20;;;;;;4189114;28;20217;-59
2022/02/08 09:53:46;;;;;;;9.85;2.03;;;15.60;73.10;;;;;;4187017;28;20052;-59
2022/02/08 09:56:10;;;;;;;10.77;1.90;;;15.60;73.10;;;;;;4174752;28;20099;-58
2022/02/08 09:58:32;;;;;;;9.88;2.30;;;15.60;73.30;;;;;;4171650;28;20069;-58
2022/02/08 10:01:04;;;;;;;9.70;1.95;;;15.60;73.40;;;;;;4176714;28;20045;-60
2022/02/08 10:03:27;;;;;;;9.43;1.70;;;15.60;73.50;;;;;;4182344;28;20539;-60
2022/02/08 10:05:53;;;;;;;7.43;1.65;;;15.60;73.80;;;;;;4175765;28;20114;-59
2022/02/08 10:08:17;;;;;;;9.02;2.35;;;15.60;73.90;;;;;;4176366;28;20123;-59
2022/02/08 10:10:42;;;;;;;4.88;1.33;;;15.60;73.90;;;;;;4189380;28;20135;-59
2022/02/08 10:13:28;;;;;;;9.05;1.90;;;15.60;73.90;;;;;;4176464;28;20147;-59
2022/02/08 10:23:59;;;;;;;10.90;2.28;;;15.50;74.70;;;;;;4175234;28;20049;-59
2022/02/08 10:26:31;;;;;;;9.38;1.55;;;15.40;74.90;;;;;;4178765;28;20049;-59
2022/02/08 10:29:01;;;;;;;11.00;2.00;;;15.50;75.10;;;;;;4181569;28;20049;-59
2022/02/08 10:39:39;;;;;;;12.43;2.78;;;15.40;75.60;;;;;;4172433;28;20129;-58
2022/02/08 10:42:01;;;;;;;15.65;2.35;;;15.40;75.90;;;;;;4187097;28;20552;-59
2022/02/08 10:44:24;;;;;;;10.05;1.70;;;15.40;76.10;;;;;;4176285;28;20099;-58
2022/02/08 10:46:46;;;;;;;9.55;2.05;;;15.30;76.00;;;;;;4191754;28;20063;-59
2022/02/08 10:49:11;;;;;;;9.95;2.25;;;15.30;76.20;;;;;;4175888;28;20739;-58
2022/02/08 10:51:38;;;;;;;10.80;2.67;;;15.30;76.20;;;;;;4175962;28;20133;-58
2022/02/08 10:54:06;;;;;;;12.95;2.10;;;15.30;76.30;;;;;;4179829;28;20048;-59
2022/02/08 10:56:33;;;;;;;7.97;2.22;;;15.30;76.20;;;;;;4175565;28;20049;-59
2022/02/08 10:59:10;;;;;;;9.38;2.33;;;15.30;76.40;;;;;;4191460;28;20046;-58
2022/02/08 11:01:35;;;;;;;12.75;2.35;;;15.20;76.50;;;;;;4191588;28;20053;-59
2022/02/08 11:04:04;;;;;;;12.77;2.42;;;15.20;76.70;;;;;;4184976;28;20522;-59
2022/02/08 11:06:31;;;;;;;12.85;2.35;;;15.20;76.90;;;;;;4191202;28;20055;-59
2022/02/08 11:09:12;;;;;;;10.27;2.05;;;15.20;76.90;;;;;;4184786;28;20060;-59
2022/02/08 11:11:57;;;;;;;11.57;2.50;;;15.20;77.10;;;;;;4191486;28;20056;-59
2022/02/08 11:14:31;;;;;;;9.88;2.22;;;15.20;77.20;;;;;;4184827;28;20407;-58
2022/02/08 11:19:46;;;;;;;9.57;1.60;;;15.10;77.10;;;;;;4148809;28;20087;-59
2022/02/08 11:22:25;;;;;;;10.73;2.00;;;15.10;77.50;;;;;;4188966;28;20052;-59
2022/02/08 11:24:51;;;;;;;11.52;2.33;;;15.10;77.80;;;;;;4179658;28;20047;-58
2022/02/08 11:27:19;;;;;;;9.10;2.30;;;15.10;77.90;;;;;;4176716;28;20052;-58
2022/02/08 11:29:51;;;;;;;10.00;1.83;;;15.10;77.50;;;;;;4179595;28;20465;-58
2022/02/08 11:32:21;;;;;;;9.55;2.10;;;15.10;77.80;;;;;;4175352;28;20053;-58
2022/02/08 11:48:51;;;;;;;13.25;1.80;;;15.10;78.10;;;;;;4178980;28;20045;-60
2022/02/08 11:54:19;;;;;;;5.22;1.58;;;15.10;78.20;;;;;;4174708;28;20408;-60
2022/02/08 11:57:02;;;;;;;8.45;1.55;;;15.00;78.60;;;;;;4174508;28;20499;-59
2022/02/08 11:59:50;;;;;;;10.40;1.65;;;15.10;78.70;;;;;;4175146;28;20053;-60
2022/02/08 12:05:17;;;;;;;9.30;2.38;;;15.20;78.40;;;;;;4187253;28;20407;-60
2022/02/08 12:07:47;;;;;;;7.95;1.67;;;15.20;78.10;;;;;;4185480;28;20048;-60
2022/02/08 12:10:19;;;;;;;7.90;1.83;;;15.30;77.90;;;;;;4174427;28;20059;-60
2022/02/08 12:32:06;;;;;;;11.93;2.08;;;15.60;77.10;;;;;;4169251;28;19924;-61
2022/02/08 12:34:47;;;;;;;11.15;2.47;;;15.70;76.80;;;;;;4181362;28;21084;-60
2022/02/08 12:53:49;;;;;;;9.80;2.28;;;15.50;77.00;;;;;;4177015;28;20495;-60
2022/02/08 12:56:30;;;;;;;9.98;2.00;;;15.50;77.20;;;;;;4188529;28;20562;-60
2022/02/08 12:59:08;;;;;;;13.52;2.65;;;15.50;77.30;;;;;;4177647;28;20056;-60
2022/02/08 13:04:14;;;;;;;12.68;2.17;;;15.60;77.30;;;;;;4178234;28;20126;-61
2022/02/08 14:08:59;;;;;;;8.02;1.80;;;15.50;78.20;;;;;;4189267;28;20151;-60
2022/02/08 14:14:29;;;;;;;14.30;2.22;;;15.60;77.90;;;;;;4180600;28;20044;-60
2022/02/08 14:19:49;;;;;;;11.23;2.22;;;15.60;78.00;;;;;;4185284;28;20056;-60
2022/02/08 14:22:19;;;;;;;9.15;1.73;;;15.50;78.10;;;;;;4191393;28;20063;-60
2022/02/08 14:30:00;;;;;;;11.48;2.20;;;15.50;78.30;;;;;;4186861;28;20118;-58
2022/02/08 14:32:29;;;;;;;9.60;2.33;;;15.50;78.40;;;;;;4187637;28;20102;-59
2022/02/08 15:10:25;;;;;;;18.38;2.13;;;15.50;78.90;;;;;;4170292;28;20857;-60
2022/02/08 15:12:52;;;;;;;11.68;1.98;;;15.50;78.70;;;;;;4170351;28;20056;-60
2022/02/08 15:15:24;;;;;;;8.27;2.05;;;15.50;78.60;;;;;;4170555;28;20053;-58
2022/02/08 15:17:47;;;;;;;13.93;2.22;;;15.50;79.50;;;;;;4170257;28;20114;-58
2022/02/08 15:20:11;;;;;;;14.20;2.70;;;15.60;78.90;;;;;;4168862;28;20052;-61
2022/02/08 15:22:34;;;;;;;12.43;2.20;;;15.70;78.50;;;;;;4170181;28;20056;-60
2022/02/08 15:24:58;;;;;;;8.85;2.25;;;15.80;77.80;;;;;;4169954;28;20495;-59
2022/02/08 15:27:22;;;;;;;12.32;2.20;;;15.90;77.30;;;;;;4168416;28;20545;-60
2022/02/08 15:29:44;;;;;;;5.43;1.75;;;16.00;76.90;;;;;;4170610;28;20041;-61
2022/02/08 15:32:14;;;;;;;10.40;1.70;;;16.10;76.60;;;;;;4167363;28;20128;-59
2022/02/08 15:34:36;;;;;;;11.30;2.22;;;16.10;76.30;;;;;;4169441;28;20045;-59
2022/02/08 15:36:58;;;;;;;13.75;2.58;;;16.10;76.30;;;;;;4168364;28;20053;-60
2022/02/08 15:39:21;;;;;;;11.40;2.30;;;16.10;76.30;;;;;;4159365;28;20165;-61
2022/02/08 15:41:45;;;;;;;7.80;2.03;;;16.10;76.50;;;;;;4157216;28;21126;-61
2022/02/08 15:44:09;;;;;;;14.75;2.13;;;16.10;77.70;;;;;;4159399;28;20073;-61
2022/02/08 15:46:33;;;;;;;12.32;2.53;;;16.00;77.00;;;;;;4158559;28;20155;-60
2022/02/08 15:48:57;;;;;;;11.07;2.63;;;16.10;77.40;;;;;;4157773;28;20049;-60
2022/02/08 15:51:26;;;;;;;12.50;2.40;;;16.10;77.70;;;;;;4158696;28;20107;-60
2022/02/08 15:53:58;;;;;;;11.80;2.47;;;16.30;77.20;;;;;;4157815;28;20049;-60
2022/02/08 16:07:02;;;;;;;9.88;1.98;;;19.10;64.70;;;;;;4158285;28;20045;-59
2022/02/08 16:09:30;;;;;;;12.93;2.38;;;19.60;62.60;;;;;;4157151;28;20142;-58
2022/02/08 16:12:08;;;;;;;8.27;2.25;;;20.00;61.20;;;;;;4158587;28;20053;-59
2022/02/08 16:14:41;;;;;;;10.25;1.92;;;20.20;60.10;;;;;;4158166;28;20053;-58
2022/02/08 16:17:16;;;;;;;4.70;1.90;;;20.30;59.70;;;;;;4156209;28;20045;-58
2022/02/08 16:19:51;;;;;;;10.07;2.72;;;20.30;59.70;;;;;;4158450;28;20046;-59
2022/02/08 16:24:57;;;;;;;9.52;2.25;;;20.00;60.40;;;;;;4152428;28;20564;-59
2022/02/08 16:27:31;;;;;;;14.88;2.15;;;19.80;61.20;;;;;;4160285;28;20064;-60
2022/02/08 16:46:34;;;;;;;10.57;2.22;;;19.10;64.90;;;;;;4159382;28;20502;-59
2022/02/08 16:49:07;;;;;;;8.07;2.00;;;19.10;65.90;;;;;;4158427;28;20136;-60
2022/02/08 16:54:23;;;;;;;8.93;2.53;;;19.00;65.50;;;;;;4143960;28;20137;-60
2022/02/08 16:56:57;;;;;;;9.45;2.20;;;18.90;66.10;;;;;;4159470;28;20061;-60
2022/02/08 16:59:25;;;;;;;10.23;2.60;;;18.90;66.60;;;;;;4158539;28;20069;-58
2022/02/08 17:01:48;;;;;;;12.48;3.35;;;18.90;66.40;;;;;;4160041;28;20045;-59
2022/02/08 17:04:10;;;;;;;11.68;2.38;;;19.00;66.00;;;;;;4159704;28;20140;-59
2022/02/08 17:06:34;;;;;;;10.15;1.85;;;19.00;65.70;;;;;;4158117;28;20060;-59
2022/02/08 17:09:03;;;;;;;8.07;2.28;;;19.10;65.70;;;;;;4159912;28;20558;-59
2022/02/08 17:11:35;;;;;;;11.52;2.15;;;19.10;65.80;;;;;;4159136;28;20468;-58
2022/02/08 17:16:58;;;;;;;9.80;2.05;;;19.00;66.20;;;;;;4159615;28;20073;-59
2022/02/08 17:46:19;;;;;;;10.65;2.88;;;18.60;68.50;;;;;;4158939;28;20551;-59
2022/02/08 17:48:41;;;;;;;8.63;2.00;;;18.60;68.80;;;;;;4142714;28;20088;-60
2022/02/08 17:51:04;;;;;;;13.25;2.67;;;18.60;68.70;;;;;;4142712;28;20139;-58
2022/02/08 17:53:47;;;;;;;9.27;2.35;;;18.70;68.50;;;;;;4131979;28;20096;-58
2022/02/08 17:56:10;;;;;;;9.75;2.53;;;18.80;68.00;;;;;;4141004;28;20115;-59
2022/02/08 17:58:35;;;;;;;9.45;2.15;;;18.80;68.00;;;;;;4141129;28;20081;-59
2022/02/08 18:00:57;;;;;;;8.52;2.28;;;18.90;67.60;;;;;;4141449;28;20104;-59